Orlando, FL (32824)

1:14 PM EST on February 10, 2016 (GMT -0500)
Meadow Woods Village 7 | | Change Station
CLOSE
Current Station
Personal Weather Station
Location: Orlando, FL
Elevation: 92 ft
Nearby Weather Stations
Active Advisory: Lake Wind Advisory

Elev 92 ft 28.37 °N, 81.37 °W | Updated 11 minutes ago

Clear
Clear
59.5 °F
Feels Like 59.5 °F
N
8.9
Wind Variable Wind from West

Today
High -- | Low -- °F
--% Chance of Precip.
Yesterday
High -- | Low -- °F
Precip. -- in
Pressure 30.20 in
Visibility 10.0 miles
Clouds Few 6000 ft
Few 25000 ft
Dew Point 34 °F
Humidity 38%
Rainfall 0.02 in
Snow Depth Not available.
7:07 AM 6:11 PM
Waxing Crescent, 6% visible
METAR KMCO 101753Z 29019G26KT 10SM FEW060 FEW250 14/M02 A3020 RMK AO2 PK WND 26027/1703 SLP225 T01441022 10144 20050 58016
Pressure 30.20 in
Visibility 10.0 miles
Clouds Few 6000 ft
Few 25000 ft
Dew Point 34 °F
Humidity 38%
Rainfall 0.02 in
Snow Depth Not available.
7:07 AM 6:11 PM
Waxing Crescent, 6% visible
METAR KMCO 101753Z 29019G26KT 10SM FEW060 FEW250 14/M02 A3020 RMK AO2 PK WND 26027/1703 SLP225 T01441022 10144 20050 58016

10-Day Weather Forecast

Almanac

Astronomy

Feb. 10, 2016 Rise Set
Actual Time
Civil Twilight
Nautical Twilight
Astronomical Twilight
Moon
Length of Visible Light
Length of Day
Tomorrow will be .
, % of the Moon is Illuminated

Today's Extremes

State Highs State Lows

Community

WunderPhotos

Upload Photos

1,891,906 photos uploaded!

WunderBlog® & News

Nearby

Air Quality

  Air Quality AQ Index Pollutant
Not available.

Snow Depth

Station Depth Elevation

Earthquake Activity

City Distance Mag. Time & Date
Minimum magnitude displayed is 2.5.

Coastal Water Temperatures

Place Temperature

Stations

Nearby Weather Stations

Station Location Temp. Windchill Dew Point Humidity Wind Precip. Elev Updated Type
                   

Watches & Warnings

Lake Wind Advisory
Issued: 3:40 AM EST Feb. 10, 2016 – National Weather Service

... Lake Wind Advisory in effect from noon today to 6 PM EST this
evening...

The National Weather Service in Melbourne has issued a lake Wind
Advisory... which is in effect from noon today to 6 PM EST this
evening.

* Winds... increasing to 20 mph out of the west to northwest this
afternoon with gusts to around 30 mph.

* Impacts... choppy conditions on Open Lakes and other larger
bodies of water will make operation of small boats potentially
hazardous.

Precautionary/preparedness actions...

A lake Wind Advisory indicates that winds will cause rough chop
on area lakes. Small boats will be especially prone to capsizing.